createdAt,value
2023-01-31T00:05:11.000Z,2.5
2023-01-31T00:19:49.000Z,2.45
2023-01-31T00:34:26.000Z,2.44
2023-01-31T00:49:05.000Z,2.35
2023-01-31T01:03:43.000Z,2.27
2023-01-31T01:18:19.000Z,2.27
2023-01-31T01:32:58.000Z,2.34
2023-01-31T01:47:36.000Z,2.28
2023-01-31T02:02:13.000Z,2.26
2023-01-31T02:16:49.000Z,2.18
2023-01-31T02:31:26.000Z,2.05
2023-01-31T02:46:02.000Z,1.86
2023-01-31T03:00:40.000Z,1.88
2023-01-31T03:15:16.000Z,1.7
2023-01-31T03:29:54.000Z,1.57
2023-01-31T03:44:32.000Z,1.4
2023-01-31T03:59:09.000Z,0.99
2023-01-31T04:13:46.000Z,0.97
2023-01-31T04:28:23.000Z,0.84
2023-01-31T04:43:00.000Z,0.63
2023-01-31T04:57:35.000Z,0.61
2023-01-31T05:12:13.000Z,0.42
2023-01-31T05:26:50.000Z,0.4
2023-01-31T05:41:24.000Z,0.19
2023-01-31T05:56:00.000Z,0.14
2023-01-31T06:10:37.000Z,0.04
2023-01-31T06:25:15.000Z,0.13
2023-01-31T06:39:46.000Z,0.57
2023-01-31T06:54:24.000Z,0.51
2023-01-31T07:09:01.000Z,0.55
2023-01-31T07:23:39.000Z,0.84
2023-01-31T07:38:18.000Z,1.03
2023-01-31T07:52:57.000Z,1.02
2023-01-31T08:07:35.000Z,1.27
2023-01-31T08:22:11.000Z,1.44
2023-01-31T08:36:49.000Z,1.47
2023-01-31T08:51:28.000Z,1.96
2023-01-31T09:06:08.000Z,1.58
2023-01-31T09:20:45.000Z,1.94
2023-01-31T09:35:22.000Z,1.74
2023-01-31T09:50:04.000Z,1.84
2023-01-31T10:04:40.000Z,1.93
2023-01-31T10:19:18.000Z,1.86
2023-01-31T10:33:56.000Z,2.09
2023-01-31T10:48:34.000Z,2.09
2023-01-31T11:03:13.000Z,1.69
2023-01-31T11:17:50.000Z,1.65
2023-01-31T11:32:29.000Z,1.5
2023-01-31T11:47:03.000Z,1.86
2023-01-31T12:01:41.000Z,1.94
2023-01-31T12:16:17.000Z,2.13
2023-01-31T12:30:56.000Z,2.72
2023-01-31T12:45:34.000Z,2.32
2023-01-31T13:00:11.000Z,2.12
2023-01-31T13:14:49.000Z,2.21
2023-01-31T13:29:27.000Z,2.52
2023-01-31T13:44:05.000Z,2.67
2023-01-31T13:58:44.000Z,2.9
2023-01-31T14:13:22.000Z,3.03
2023-01-31T14:28:01.000Z,3.1
2023-01-31T14:42:39.000Z,3.24
2023-01-31T14:57:25.000Z,3.34
2023-01-31T15:11:54.000Z,3.27
2023-01-31T15:26:32.000Z,3.05
2023-01-31T15:41:10.000Z,3.02
2023-01-31T15:55:47.000Z,2.95
2023-01-31T16:10:25.000Z,3.08
2023-01-31T16:25:04.000Z,3.16
2023-01-31T16:39:41.000Z,3.16
2023-01-31T16:54:18.000Z,3.09
2023-01-31T17:08:54.000Z,3.07
2023-01-31T17:23:32.000Z,3.03
2023-01-31T17:38:10.000Z,3.03
2023-01-31T17:52:47.000Z,3.06
2023-01-31T18:07:18.000Z,3.15
2023-01-31T18:21:56.000Z,3.16
2023-01-31T18:36:31.000Z,3.31
2023-01-31T18:51:09.000Z,3.16
2023-01-31T19:05:48.000Z,3.47
2023-01-31T19:20:24.000Z,3.25
2023-01-31T19:35:02.000Z,3.24
2023-01-31T19:49:40.000Z,3.3
2023-01-31T20:04:15.000Z,3.29
2023-01-31T20:18:48.000Z,3.35
2023-01-31T20:33:23.000Z,3.4
2023-01-31T20:48:01.000Z,3.41
2023-01-31T21:02:38.000Z,3.79
2023-01-31T21:17:15.000Z,3.48
2023-01-31T21:31:51.000Z,3.4
2023-01-31T21:46:28.000Z,3.39
2023-01-31T22:01:05.000Z,3.23
2023-01-31T22:15:43.000Z,3.25
2023-01-31T22:30:18.000Z,3.19
2023-01-31T22:44:54.000Z,3.3
2023-01-31T22:59:33.000Z,3.35
2023-01-31T23:14:12.000Z,3.3
2023-01-31T23:28:50.000Z,3.4
2023-01-31T23:43:26.000Z,3.48
2023-01-31T23:58:04.000Z,3.53
